sensor_id;sensor_type;location;lat;lon;timestamp;temperature;humidity
30097;DHT22;16915;51.466;3.610;2023-07-24T00:01:12;17.40;99.90
30097;DHT22;16915;51.466;3.610;2023-07-24T00:03:37;17.40;99.90
30097;DHT22;16915;51.466;3.610;2023-07-24T00:06:03;17.40;99.90
30097;DHT22;16915;51.466;3.610;2023-07-24T00:08:28;17.40;99.90
30097;DHT22;16915;51.466;3.610;2023-07-24T00:10:54;17.40;99.90
30097;DHT22;16915;51.466;3.610;2023-07-24T00:13:19;17.40;99.90
30097;DHT22;16915;51.466;3.610;2023-07-24T00:15:45;17.30;99.90
30097;DHT22;16915;51.466;3.610;2023-07-24T00:18:11;17.30;99.90
30097;DHT22;16915;51.466;3.610;2023-07-24T00:20:36;17.30;99.90
30097;DHT22;16915;51.466;3.610;2023-07-24T00:23:02;17.30;99.90
30097;DHT22;16915;51.466;3.610;2023-07-24T00:25:27;17.30;99.90
30097;DHT22;16915;51.466;3.610;2023-07-24T00:27:53;17.30;99.90
30097;DHT22;16915;51.466;3.610;2023-07-24T00:30:19;17.30;99.90
30097;DHT22;16915;51.466;3.610;2023-07-24T00:32:44;17.30;99.90
30097;DHT22;16915;51.466;3.610;2023-07-24T00:35:10;17.30;99.90
30097;DHT22;16915;51.466;3.610;2023-07-24T00:37:35;17.30;99.90
30097;DHT22;16915;51.466;3.610;2023-07-24T00:40:02;17.30;99.90
30097;DHT22;16915;51.466;3.610;2023-07-24T00:42:28;17.30;99.90
30097;DHT22;16915;51.466;3.610;2023-07-24T00:44:53;17.30;99.90
30097;DHT22;16915;51.466;3.610;2023-07-24T00:47:19;17.30;99.90
30097;DHT22;16915;51.466;3.610;2023-07-24T00:49:45;17.30;99.90
30097;DHT22;16915;51.466;3.610;2023-07-24T00:52:11;17.20;99.90
30097;DHT22;16915;51.466;3.610;2023-07-24T00:54:37;17.20;99.90
30097;DHT22;16915;51.466;3.610;2023-07-24T00:57:04;17.30;99.90
30097;DHT22;16915;51.466;3.610;2023-07-24T00:59:31;17.20;99.90
30097;DHT22;16915;51.466;3.610;2023-07-24T01:01:57;17.20;99.90
30097;DHT22;16915;51.466;3.610;2023-07-24T01:04:23;17.30;99.90
30097;DHT22;16915;51.466;3.610;2023-07-24T01:06:49;17.30;99.90
30097;DHT22;16915;51.466;3.610;2023-07-24T01:09:14;17.30;99.90
30097;DHT22;16915;51.466;3.610;2023-07-24T01:14:51;17.30;99.90
30097;DHT22;16915;51.466;3.610;2023-07-24T01:17:24;17.30;99.90
30097;DHT22;16915;51.466;3.610;2023-07-24T01:19:55;17.30;99.90
30097;DHT22;16915;51.466;3.610;2023-07-24T01:27:29;17.30;99.90
30097;DHT22;16915;51.466;3.610;2023-07-24T01:29:55;17.30;99.90
30097;DHT22;16915;51.466;3.610;2023-07-24T01:32:20;17.20;99.90
30097;DHT22;16915;51.466;3.610;2023-07-24T01:34:46;17.30;99.90
30097;DHT22;16915;51.466;3.610;2023-07-24T01:37:13;17.30;99.90
30097;DHT22;16915;51.466;3.610;2023-07-24T01:39:41;17.30;99.90
30097;DHT22;16915;51.466;3.610;2023-07-24T01:42:07;17.20;99.90
30097;DHT22;16915;51.466;3.610;2023-07-24T01:44:33;17.20;99.90
30097;DHT22;16915;51.466;3.610;2023-07-24T01:46:58;17.20;99.90
30097;DHT22;16915;51.466;3.610;2023-07-24T01:49:24;17.30;99.90
30097;DHT22;16915;51.466;3.610;2023-07-24T01:51:50;17.20;99.90
30097;DHT22;16915;51.466;3.610;2023-07-24T01:54:15;17.20;99.90
30097;DHT22;16915;51.466;3.610;2023-07-24T01:56:41;17.20;99.90
30097;DHT22;16915;51.466;3.610;2023-07-24T01:59:07;17.20;99.90
30097;DHT22;16915;51.466;3.610;2023-07-24T02:01:32;17.20;99.90
30097;DHT22;16915;51.466;3.610;2023-07-24T02:03:58;17.20;99.90
30097;DHT22;16915;51.466;3.610;2023-07-24T02:06:24;17.10;99.90
30097;DHT22;16915;51.466;3.610;2023-07-24T02:08:49;17.10;99.90
30097;DHT22;16915;51.466;3.610;2023-07-24T02:11:17;17.10;99.90
30097;DHT22;16915;51.466;3.610;2023-07-24T02:13:46;17.10;99.90
30097;DHT22;16915;51.466;3.610;2023-07-24T02:16:14;17.00;99.90
30097;DHT22;16915;51.466;3.610;2023-07-24T02:18:43;17.00;99.90
30097;DHT22;16915;51.466;3.610;2023-07-24T02:21:09;17.00;99.90
30097;DHT22;16915;51.466;3.610;2023-07-24T02:23:35;17.00;99.90
30097;DHT22;16915;51.466;3.610;2023-07-24T02:26:01;16.90;99.90
30097;DHT22;16915;51.466;3.610;2023-07-24T02:28:26;17.00;99.90
30097;DHT22;16915;51.466;3.610;2023-07-24T02:30:52;17.00;99.90
30097;DHT22;16915;51.466;3.610;2023-07-24T02:33:22;16.90;99.90
30097;DHT22;16915;51.466;3.610;2023-07-24T02:35:50;16.90;99.90
30097;DHT22;16915;51.466;3.610;2023-07-24T02:38:16;16.90;99.90
30097;DHT22;16915;51.466;3.610;2023-07-24T02:40:43;16.90;99.90
30097;DHT22;16915;51.466;3.610;2023-07-24T02:43:09;16.90;99.90
30097;DHT22;16915;51.466;3.610;2023-07-24T02:45:35;16.90;99.90
30097;DHT22;16915;51.466;3.610;2023-07-24T02:48:00;16.90;99.90
30097;DHT22;16915;51.466;3.610;2023-07-24T02:50:27;16.90;99.90
30097;DHT22;16915;51.466;3.610;2023-07-24T02:52:53;16.90;99.90
30097;DHT22;16915;51.466;3.610;2023-07-24T02:55:18;16.90;99.90
30097;DHT22;16915;51.466;3.610;2023-07-24T02:57:44;16.90;99.90
30097;DHT22;16915;51.466;3.610;2023-07-24T03:00:10;16.90;99.90
30097;DHT22;16915;51.466;3.610;2023-07-24T03:02:35;16.90;99.90
30097;DHT22;16915;51.466;3.610;2023-07-24T03:05:02;16.90;99.90
30097;DHT22;16915;51.466;3.610;2023-07-24T03:07:27;16.90;99.90
30097;DHT22;16915;51.466;3.610;2023-07-24T03:09:53;16.90;99.90
30097;DHT22;16915;51.466;3.610;2023-07-24T03:12:18;16.90;99.90
30097;DHT22;16915;51.466;3.610;2023-07-24T03:14:44;16.90;99.90
30097;DHT22;16915;51.466;3.610;2023-07-24T03:17:09;16.90;99.90
30097;DHT22;16915;51.466;3.610;2023-07-24T03:19:35;16.90;99.90
30097;DHT22;16915;51.466;3.610;2023-07-24T03:22:01;16.90;99.90
30097;DHT22;16915;51.466;3.610;2023-07-24T03:24:26;16.90;99.90
30097;DHT22;16915;51.466;3.610;2023-07-24T03:26:53;16.90;99.90
30097;DHT22;16915;51.466;3.610;2023-07-24T03:29:18;16.90;99.90
30097;DHT22;16915;51.466;3.610;2023-07-24T03:31:44;16.90;99.90
30097;DHT22;16915;51.466;3.610;2023-07-24T03:34:09;16.90;99.90
30097;DHT22;16915;51.466;3.610;2023-07-24T03:36:35;16.90;99.90
30097;DHT22;16915;51.466;3.610;2023-07-24T03:39:01;16.90;99.90
30097;DHT22;16915;51.466;3.610;2023-07-24T03:41:28;16.90;99.90
30097;DHT22;16915;51.466;3.610;2023-07-24T03:43:53;16.90;99.90
30097;DHT22;16915;51.466;3.610;2023-07-24T03:46:19;16.80;99.90
30097;DHT22;16915;51.466;3.610;2023-07-24T03:48:44;16.80;99.90
30097;DHT22;16915;51.466;3.610;2023-07-24T03:51:10;16.80;99.90
30097;DHT22;16915;51.466;3.610;2023-07-24T03:53:35;16.80;99.90
30097;DHT22;16915;51.466;3.610;2023-07-24T03:56:01;16.80;99.90
30097;DHT22;16915;51.466;3.610;2023-07-24T03:58:27;16.80;99.90
30097;DHT22;16915;51.466;3.610;2023-07-24T04:00:52;16.70;99.90
30097;DHT22;16915;51.466;3.610;2023-07-24T04:03:18;16.70;99.90
30097;DHT22;16915;51.466;3.610;2023-07-24T04:05:43;16.70;99.90
30097;DHT22;16915;51.466;3.610;2023-07-24T04:08:09;16.70;99.90
30097;DHT22;16915;51.466;3.610;2023-07-24T04:10:34;16.60;99.90
30097;DHT22;16915;51.466;3.610;2023-07-24T04:13:00;16.60;99.90
30097;DHT22;16915;51.466;3.610;2023-07-24T04:15:26;16.50;99.90
30097;DHT22;16915;51.466;3.610;2023-07-24T04:17:51;16.50;99.90
30097;DHT22;16915;51.466;3.610;2023-07-24T04:20:17;16.50;99.90
30097;DHT22;16915;51.466;3.610;2023-07-24T04:22:42;16.50;99.90
30097;DHT22;16915;51.466;3.610;2023-07-24T04:25:08;16.50;99.90
30097;DHT22;16915;51.466;3.610;2023-07-24T04:27:34;16.50;99.90
30097;DHT22;16915;51.466;3.610;2023-07-24T04:29:59;16.60;99.90
30097;DHT22;16915;51.466;3.610;2023-07-24T04:32:28;16.60;99.90
30097;DHT22;16915;51.466;3.610;2023-07-24T04:34:53;16.60;99.90
30097;DHT22;16915;51.466;3.610;2023-07-24T04:37:19;16.60;99.90
30097;DHT22;16915;51.466;3.610;2023-07-24T04:39:44;16.70;99.90
30097;DHT22;16915;51.466;3.610;2023-07-24T04:42:10;16.70;99.90
30097;DHT22;16915;51.466;3.610;2023-07-24T04:44:36;16.70;99.90
30097;DHT22;16915;51.466;3.610;2023-07-24T04:47:01;16.70;99.90
30097;DHT22;16915;51.466;3.610;2023-07-24T04:49:31;16.70;99.90
30097;DHT22;16915;51.466;3.610;2023-07-24T04:51:58;16.70;99.90
30097;DHT22;16915;51.466;3.610;2023-07-24T04:54:24;16.70;99.90
30097;DHT22;16915;51.466;3.610;2023-07-24T04:56:50;16.70;99.90
30097;DHT22;16915;51.466;3.610;2023-07-24T04:59:15;16.70;99.90
30097;DHT22;16915;51.466;3.610;2023-07-24T05:01:41;16.80;99.90
30097;DHT22;16915;51.466;3.610;2023-07-24T05:04:06;16.80;99.90
30097;DHT22;16915;51.466;3.610;2023-07-24T05:06:32;16.90;99.90
30097;DHT22;16915;51.466;3.610;2023-07-24T05:08:57;17.00;99.90
30097;DHT22;16915;51.466;3.610;2023-07-24T05:11:23;17.00;99.90
30097;DHT22;16915;51.466;3.610;2023-07-24T05:13:48;17.00;99.90
30097;DHT22;16915;51.466;3.610;2023-07-24T05:16:14;17.00;99.90
30097;DHT22;16915;51.466;3.610;2023-07-24T05:18:40;16.90;99.90
30097;DHT22;16915;51.466;3.610;2023-07-24T05:21:05;16.90;99.90
30097;DHT22;16915;51.466;3.610;2023-07-24T05:23:31;16.80;99.90
30097;DHT22;16915;51.466;3.610;2023-07-24T05:26:03;16.80;99.90
30097;DHT22;16915;51.466;3.610;2023-07-24T05:28:30;16.80;99.90
30097;DHT22;16915;51.466;3.610;2023-07-24T05:30:59;16.70;99.90
30097;DHT22;16915;51.466;3.610;2023-07-24T05:33:25;16.70;99.90
30097;DHT22;16915;51.466;3.610;2023-07-24T05:35:50;16.70;99.90
30097;DHT22;16915;51.466;3.610;2023-07-24T05:38:16;16.70;99.90
30097;DHT22;16915;51.466;3.610;2023-07-24T05:40:41;16.80;99.90
30097;DHT22;16915;51.466;3.610;2023-07-24T05:43:07;16.80;99.90
30097;DHT22;16915;51.466;3.610;2023-07-24T05:45:33;16.80;99.90
30097;DHT22;16915;51.466;3.610;2023-07-24T05:47:58;16.90;99.90
30097;DHT22;16915;51.466;3.610;2023-07-24T05:50:24;16.90;99.90
30097;DHT22;16915;51.466;3.610;2023-07-24T05:52:49;16.90;99.90
30097;DHT22;16915;51.466;3.610;2023-07-24T05:55:15;17.10;99.90
30097;DHT22;16915;51.466;3.610;2023-07-24T05:57:40;17.20;99.90
30097;DHT22;16915;51.466;3.610;2023-07-24T06:00:07;17.30;99.90
30097;DHT22;16915;51.466;3.610;2023-07-24T06:02:33;17.40;99.90
30097;DHT22;16915;51.466;3.610;2023-07-24T06:04:58;17.40;99.90
30097;DHT22;16915;51.466;3.610;2023-07-24T06:07:24;17.40;99.90
30097;DHT22;16915;51.466;3.610;2023-07-24T06:09:50;17.50;99.90
30097;DHT22;16915;51.466;3.610;2023-07-24T06:12:15;17.70;99.90
30097;DHT22;16915;51.466;3.610;2023-07-24T06:14:41;17.90;99.90
30097;DHT22;16915;51.466;3.610;2023-07-24T06:17:06;18.10;99.90
30097;DHT22;16915;51.466;3.610;2023-07-24T06:19:32;18.40;99.90
30097;DHT22;16915;51.466;3.610;2023-07-24T06:21:58;18.30;99.90
30097;DHT22;16915;51.466;3.610;2023-07-24T06:24:23;18.20;99.90
30097;DHT22;16915;51.466;3.610;2023-07-24T06:26:50;18.00;99.90
30097;DHT22;16915;51.466;3.610;2023-07-24T06:29:16;18.00;99.90
30097;DHT22;16915;51.466;3.610;2023-07-24T06:31:41;18.00;99.90
30097;DHT22;16915;51.466;3.610;2023-07-24T06:34:07;18.10;99.90
30097;DHT22;16915;51.466;3.610;2023-07-24T06:36:33;18.30;99.90
30097;DHT22;16915;51.466;3.610;2023-07-24T06:38:58;18.40;99.90
30097;DHT22;16915;51.466;3.610;2023-07-24T06:41:24;18.60;99.90
30097;DHT22;16915;51.466;3.610;2023-07-24T06:43:51;18.80;99.90
30097;DHT22;16915;51.466;3.610;2023-07-24T06:46:16;18.90;99.90
30097;DHT22;16915;51.466;3.610;2023-07-24T06:48:42;19.00;99.90
30097;DHT22;16915;51.466;3.610;2023-07-24T06:51:08;19.00;99.90
30097;DHT22;16915;51.466;3.610;2023-07-24T06:53:33;19.10;99.90
30097;DHT22;16915;51.466;3.610;2023-07-24T06:55:59;19.10;99.90
30097;DHT22;16915;51.466;3.610;2023-07-24T06:58:24;19.00;99.90
30097;DHT22;16915;51.466;3.610;2023-07-24T07:00:50;19.00;99.90
30097;DHT22;16915;51.466;3.610;2023-07-24T07:03:16;18.90;99.90
30097;DHT22;16915;51.466;3.610;2023-07-24T07:05:41;18.90;99.90
30097;DHT22;16915;51.466;3.610;2023-07-24T07:08:07;19.00;99.90
30097;DHT22;16915;51.466;3.610;2023-07-24T07:10:32;19.10;99.90
30097;DHT22;16915;51.466;3.610;2023-07-24T07:12:58;19.20;99.90
30097;DHT22;16915;51.466;3.610;2023-07-24T07:15:23;19.20;99.90
30097;DHT22;16915;51.466;3.610;2023-07-24T07:17:49;19.30;99.90
30097;DHT22;16915;51.466;3.610;2023-07-24T07:20:14;19.40;99.90
30097;DHT22;16915;51.466;3.610;2023-07-24T07:22:40;19.30;99.90
30097;DHT22;16915;51.466;3.610;2023-07-24T07:25:06;19.10;99.90
30097;DHT22;16915;51.466;3.610;2023-07-24T07:27:32;19.00;99.90
30097;DHT22;16915;51.466;3.610;2023-07-24T07:29:57;19.00;99.90
30097;DHT22;16915;51.466;3.610;2023-07-24T07:32:23;19.10;99.90
30097;DHT22;16915;51.466;3.610;2023-07-24T07:34:48;19.10;99.90
30097;DHT22;16915;51.466;3.610;2023-07-24T07:37:14;19.10;99.90
30097;DHT22;16915;51.466;3.610;2023-07-24T07:39:39;19.20;99.90
30097;DHT22;16915;51.466;3.610;2023-07-24T07:42:05;19.30;99.90
30097;DHT22;16915;51.466;3.610;2023-07-24T07:44:31;19.50;99.90
30097;DHT22;16915;51.466;3.610;2023-07-24T07:46:56;19.60;99.90
30097;DHT22;16915;51.466;3.610;2023-07-24T07:49:22;19.80;99.90
30097;DHT22;16915;51.466;3.610;2023-07-24T07:51:47;19.70;99.90
30097;DHT22;16915;51.466;3.610;2023-07-24T07:54:13;19.60;99.90
30097;DHT22;16915;51.466;3.610;2023-07-24T07:56:41;19.60;99.90
30097;DHT22;16915;51.466;3.610;2023-07-24T07:59:06;19.50;99.90
30097;DHT22;16915;51.466;3.610;2023-07-24T08:01:32;19.40;99.90
30097;DHT22;16915;51.466;3.610;2023-07-24T08:03:58;19.30;99.90
30097;DHT22;16915;51.466;3.610;2023-07-24T08:06:23;19.20;99.90
30097;DHT22;16915;51.466;3.610;2023-07-24T08:08:50;18.90;99.90
30097;DHT22;16915;51.466;3.610;2023-07-24T08:11:15;18.60;99.90
30097;DHT22;16915;51.466;3.610;2023-07-24T08:13:41;18.30;99.90
30097;DHT22;16915;51.466;3.610;2023-07-24T08:16:13;18.00;99.90
30097;DHT22;16915;51.466;3.610;2023-07-24T08:18:46;17.80;99.90
30097;DHT22;16915;51.466;3.610;2023-07-24T08:21:13;17.70;99.90
30097;DHT22;16915;51.466;3.610;2023-07-24T08:23:39;17.70;99.90
30097;DHT22;16915;51.466;3.610;2023-07-24T08:26:05;17.80;99.90
30097;DHT22;16915;51.466;3.610;2023-07-24T08:28:31;17.80;99.90
30097;DHT22;16915;51.466;3.610;2023-07-24T08:30:58;17.80;99.90
30097;DHT22;16915;51.466;3.610;2023-07-24T08:33:24;17.90;99.90
30097;DHT22;16915;51.466;3.610;2023-07-24T08:36:06;18.00;99.90
30097;DHT22;16915;51.466;3.610;2023-07-24T08:38:33;18.00;99.90
30097;DHT22;16915;51.466;3.610;2023-07-24T08:43:29;18.00;99.90
30097;DHT22;16915;51.466;3.610;2023-07-24T08:45:55;18.00;99.90
30097;DHT22;16915;51.466;3.610;2023-07-24T08:48:22;18.00;99.90
30097;DHT22;16915;51.466;3.610;2023-07-24T08:50:50;18.00;99.90
30097;DHT22;16915;51.466;3.610;2023-07-24T08:53:16;18.10;99.90
30097;DHT22;16915;51.466;3.610;2023-07-24T08:55:43;18.20;99.90
30097;DHT22;16915;51.466;3.610;2023-07-24T08:58:10;18.40;99.90
30097;DHT22;16915;51.466;3.610;2023-07-24T09:00:35;18.50;99.90
30097;DHT22;16915;51.466;3.610;2023-07-24T09:03:01;18.60;99.90
30097;DHT22;16915;51.466;3.610;2023-07-24T09:05:27;18.70;99.90
30097;DHT22;16915;51.466;3.610;2023-07-24T09:07:53;18.70;99.90
30097;DHT22;16915;51.466;3.610;2023-07-24T09:10:24;19.00;99.90
30097;DHT22;16915;51.466;3.610;2023-07-24T09:12:51;19.20;99.90
30097;DHT22;16915;51.466;3.610;2023-07-24T09:15:16;19.50;99.90
30097;DHT22;16915;51.466;3.610;2023-07-24T09:17:52;19.60;99.90
30097;DHT22;16915;51.466;3.610;2023-07-24T09:20:19;19.70;99.90
30097;DHT22;16915;51.466;3.610;2023-07-24T09:22:52;19.90;99.90
30097;DHT22;16915;51.466;3.610;2023-07-24T09:25:18;20.10;99.90
30097;DHT22;16915;51.466;3.610;2023-07-24T09:27:44;20.30;99.90
30097;DHT22;16915;51.466;3.610;2023-07-24T09:30:18;20.70;99.90
30097;DHT22;16915;51.466;3.610;2023-07-24T09:32:52;20.90;99.90
30097;DHT22;16915;51.466;3.610;2023-07-24T09:35:19;21.10;99.90
30097;DHT22;16915;51.466;3.610;2023-07-24T09:37:45;21.20;99.90
30097;DHT22;16915;51.466;3.610;2023-07-24T09:40:13;21.20;99.90
30097;DHT22;16915;51.466;3.610;2023-07-24T09:42:39;21.50;99.90
30097;DHT22;16915;51.466;3.610;2023-07-24T09:45:06;21.50;99.90
30097;DHT22;16915;51.466;3.610;2023-07-24T09:47:34;21.60;99.90
30097;DHT22;16915;51.466;3.610;2023-07-24T09:50:00;21.60;99.90
30097;DHT22;16915;51.466;3.610;2023-07-24T09:52:29;21.30;99.90
30097;DHT22;16915;51.466;3.610;2023-07-24T09:57:23;21.00;99.90
30097;DHT22;16915;51.466;3.610;2023-07-24T09:59:49;20.90;99.90
30097;DHT22;16915;51.466;3.610;2023-07-24T10:02:17;20.80;99.90
30097;DHT22;16915;51.466;3.610;2023-07-24T10:04:44;20.80;99.90
30097;DHT22;16915;51.466;3.610;2023-07-24T10:07:10;20.90;99.90
30097;DHT22;16915;51.466;3.610;2023-07-24T10:09:36;21.10;99.90
30097;DHT22;16915;51.466;3.610;2023-07-24T10:12:02;21.10;99.90
30097;DHT22;16915;51.466;3.610;2023-07-24T10:14:29;21.10;99.90
30097;DHT22;16915;51.466;3.610;2023-07-24T10:16:56;21.40;99.90
30097;DHT22;16915;51.466;3.610;2023-07-24T10:19:22;21.70;99.90
30097;DHT22;16915;51.466;3.610;2023-07-24T10:21:48;21.90;99.90
30097;DHT22;16915;51.466;3.610;2023-07-24T10:24:17;22.20;99.90
30097;DHT22;16915;51.466;3.610;2023-07-24T10:26:43;22.30;99.90
30097;DHT22;16915;51.466;3.610;2023-07-24T10:29:09;22.30;99.90
30097;DHT22;16915;51.466;3.610;2023-07-24T10:31:35;22.60;99.90
30097;DHT22;16915;51.466;3.610;2023-07-24T10:34:07;22.50;99.90
30097;DHT22;16915;51.466;3.610;2023-07-24T10:36:35;22.30;99.90
30097;DHT22;16915;51.466;3.610;2023-07-24T10:39:01;22.40;99.90
30097;DHT22;16915;51.466;3.610;2023-07-24T10:41:37;22.60;99.90
30097;DHT22;16915;51.466;3.610;2023-07-24T10:44:05;23.10;99.90
30097;DHT22;16915;51.466;3.610;2023-07-24T10:46:41;23.70;99.90
30097;DHT22;16915;51.466;3.610;2023-07-24T10:49:08;24.10;99.90
30097;DHT22;16915;51.466;3.610;2023-07-24T10:51:34;24.20;99.90
30097;DHT22;16915;51.466;3.610;2023-07-24T10:54:03;23.80;99.90
30097;DHT22;16915;51.466;3.610;2023-07-24T10:56:29;23.60;99.90
30097;DHT22;16915;51.466;3.610;2023-07-24T10:58:54;23.50;99.90
30097;DHT22;16915;51.466;3.610;2023-07-24T11:01:20;23.80;99.90
30097;DHT22;16915;51.466;3.610;2023-07-24T11:03:46;24.20;99.90
30097;DHT22;16915;51.466;3.610;2023-07-24T11:06:16;24.20;99.90
30097;DHT22;16915;51.466;3.610;2023-07-24T11:08:50;24.30;99.90
30097;DHT22;16915;51.466;3.610;2023-07-24T11:11:16;24.70;99.90
30097;DHT22;16915;51.466;3.610;2023-07-24T11:13:41;25.10;99.90
30097;DHT22;16915;51.466;3.610;2023-07-24T11:16:08;25.10;99.90
30097;DHT22;16915;51.466;3.610;2023-07-24T11:18:47;25.20;99.90
30097;DHT22;16915;51.466;3.610;2023-07-24T11:21:13;25.50;99.90
30097;DHT22;16915;51.466;3.610;2023-07-24T11:23:52;26.00;99.90
30097;DHT22;16915;51.466;3.610;2023-07-24T11:26:22;26.10;99.90
30097;DHT22;16915;51.466;3.610;2023-07-24T11:28:49;26.30;99.90
30097;DHT22;16915;51.466;3.610;2023-07-24T11:31:16;26.50;99.90
30097;DHT22;16915;51.466;3.610;2023-07-24T11:33:45;26.20;99.90
30097;DHT22;16915;51.466;3.610;2023-07-24T11:36:11;26.30;99.90
30097;DHT22;16915;51.466;3.610;2023-07-24T11:38:37;26.80;99.90
30097;DHT22;16915;51.466;3.610;2023-07-24T11:41:04;27.50;99.90
30097;DHT22;16915;51.466;3.610;2023-07-24T11:43:30;27.70;99.90
30097;DHT22;16915;51.466;3.610;2023-07-24T11:45:55;27.90;99.90
30097;DHT22;16915;51.466;3.610;2023-07-24T11:48:23;27.60;99.90
30097;DHT22;16915;51.466;3.610;2023-07-24T11:50:51;27.20;99.90
30097;DHT22;16915;51.466;3.610;2023-07-24T11:53:24;26.80;99.90
30097;DHT22;16915;51.466;3.610;2023-07-24T11:55:51;27.00;99.90
30097;DHT22;16915;51.466;3.610;2023-07-24T11:58:18;27.40;99.90
30097;DHT22;16915;51.466;3.610;2023-07-24T12:00:46;27.80;99.90
30097;DHT22;16915;51.466;3.610;2023-07-24T12:03:12;28.40;99.90
30097;DHT22;16915;51.466;3.610;2023-07-24T12:05:39;28.30;99.90
30097;DHT22;16915;51.466;3.610;2023-07-24T12:08:05;28.30;99.90
30097;DHT22;16915;51.466;3.610;2023-07-24T12:10:30;28.70;99.90
30097;DHT22;16915;51.466;3.610;2023-07-24T12:12:59;29.30;99.90
30097;DHT22;16915;51.466;3.610;2023-07-24T12:15:25;29.70;99.90
30097;DHT22;16915;51.466;3.610;2023-07-24T12:17:52;29.90;99.90
30097;DHT22;16915;51.466;3.610;2023-07-24T12:20:18;29.00;99.90
30097;DHT22;16915;51.466;3.610;2023-07-24T12:22:43;28.60;99.90
30097;DHT22;16915;51.466;3.610;2023-07-24T12:25:09;28.70;99.90
30097;DHT22;16915;51.466;3.610;2023-07-24T12:27:35;29.20;99.90
30097;DHT22;16915;51.466;3.610;2023-07-24T12:30:01;29.40;99.90
30097;DHT22;16915;51.466;3.610;2023-07-24T12:32:27;29.40;99.90
30097;DHT22;16915;51.466;3.610;2023-07-24T12:34:53;29.00;99.90
30097;DHT22;16915;51.466;3.610;2023-07-24T12:37:19;28.60;99.90
30097;DHT22;16915;51.466;3.610;2023-07-24T12:39:48;28.30;99.90
30097;DHT22;16915;51.466;3.610;2023-07-24T12:42:14;28.00;99.90
30097;DHT22;16915;51.466;3.610;2023-07-24T12:44:41;27.90;99.90
30097;DHT22;16915;51.466;3.610;2023-07-24T12:47:07;28.30;99.90
30097;DHT22;16915;51.466;3.610;2023-07-24T12:49:33;29.20;99.90
30097;DHT22;16915;51.466;3.610;2023-07-24T12:51:59;29.70;99.90
30097;DHT22;16915;51.466;3.610;2023-07-24T12:54:24;29.60;99.90
30097;DHT22;16915;51.466;3.610;2023-07-24T12:56:50;29.00;99.90
30097;DHT22;16915;51.466;3.610;2023-07-24T12:59:17;28.20;99.90
30097;DHT22;16915;51.466;3.610;2023-07-24T13:01:43;27.50;99.90
30097;DHT22;16915;51.466;3.610;2023-07-24T13:04:09;27.50;99.90
30097;DHT22;16915;51.466;3.610;2023-07-24T13:06:35;27.80;99.90
30097;DHT22;16915;51.466;3.610;2023-07-24T13:09:00;27.70;99.90
30097;DHT22;16915;51.466;3.610;2023-07-24T13:11:26;27.30;99.90
30097;DHT22;16915;51.466;3.610;2023-07-24T13:13:53;26.80;99.90
30097;DHT22;16915;51.466;3.610;2023-07-24T13:16:19;26.10;99.90
30097;DHT22;16915;51.466;3.610;2023-07-24T13:18:45;25.40;99.90
30097;DHT22;16915;51.466;3.610;2023-07-24T13:21:10;24.80;99.90
30097;DHT22;16915;51.466;3.610;2023-07-24T13:23:36;24.40;99.90
30097;DHT22;16915;51.466;3.610;2023-07-24T13:26:02;24.20;99.90
30097;DHT22;16915;51.466;3.610;2023-07-24T13:28:28;23.80;99.90
30097;DHT22;16915;51.466;3.610;2023-07-24T13:30:53;23.60;99.90
30097;DHT22;16915;51.466;3.610;2023-07-24T13:33:19;23.50;99.90
30097;DHT22;16915;51.466;3.610;2023-07-24T13:35:47;23.50;99.90
30097;DHT22;16915;51.466;3.610;2023-07-24T13:38:12;23.60;99.90
30097;DHT22;16915;51.466;3.610;2023-07-24T13:40:38;23.50;99.90
30097;DHT22;16915;51.466;3.610;2023-07-24T13:43:04;23.70;99.90
30097;DHT22;16915;51.466;3.610;2023-07-24T13:45:30;24.10;99.90
30097;DHT22;16915;51.466;3.610;2023-07-24T13:47:57;24.30;99.90
30097;DHT22;16915;51.466;3.610;2023-07-24T13:50:23;24.30;99.90
30097;DHT22;16915;51.466;3.610;2023-07-24T13:52:49;24.30;99.90
30097;DHT22;16915;51.466;3.610;2023-07-24T13:55:15;24.30;99.90
30097;DHT22;16915;51.466;3.610;2023-07-24T13:57:41;24.70;99.90
30097;DHT22;16915;51.466;3.610;2023-07-24T14:00:07;24.70;99.90
30097;DHT22;16915;51.466;3.610;2023-07-24T14:02:33;24.90;99.90
30097;DHT22;16915;51.466;3.610;2023-07-24T14:04:58;24.60;99.90
30097;DHT22;16915;51.466;3.610;2023-07-24T14:07:24;24.60;99.90
30097;DHT22;16915;51.466;3.610;2023-07-24T14:09:50;24.00;99.90
30097;DHT22;16915;51.466;3.610;2023-07-24T14:12:15;23.50;99.90
30097;DHT22;16915;51.466;3.610;2023-07-24T14:14:41;22.90;99.90
30097;DHT22;16915;51.466;3.610;2023-07-24T14:17:07;22.60;99.90
30097;DHT22;16915;51.466;3.610;2023-07-24T14:19:32;22.30;99.90
30097;DHT22;16915;51.466;3.610;2023-07-24T14:21:58;21.90;99.90
30097;DHT22;16915;51.466;3.610;2023-07-24T14:24:24;21.70;99.90
30097;DHT22;16915;51.466;3.610;2023-07-24T14:26:49;22.00;99.90
30097;DHT22;16915;51.466;3.610;2023-07-24T14:29:15;22.30;99.90
30097;DHT22;16915;51.466;3.610;2023-07-24T14:31:43;22.90;99.90
30097;DHT22;16915;51.466;3.610;2023-07-24T14:34:09;23.50;99.90
30097;DHT22;16915;51.466;3.610;2023-07-24T14:36:37;23.50;99.90
30097;DHT22;16915;51.466;3.610;2023-07-24T14:39:03;23.20;99.90
30097;DHT22;16915;51.466;3.610;2023-07-24T14:41:29;22.90;99.90
30097;DHT22;16915;51.466;3.610;2023-07-24T14:43:55;22.70;99.90
30097;DHT22;16915;51.466;3.610;2023-07-24T14:46:24;22.50;99.90
30097;DHT22;16915;51.466;3.610;2023-07-24T14:48:49;22.30;99.90
30097;DHT22;16915;51.466;3.610;2023-07-24T14:51:15;22.30;99.90
30097;DHT22;16915;51.466;3.610;2023-07-24T14:53:40;22.20;99.90
30097;DHT22;16915;51.466;3.610;2023-07-24T14:56:06;22.00;99.90
30097;DHT22;16915;51.466;3.610;2023-07-24T14:58:31;21.80;99.90
30097;DHT22;16915;51.466;3.610;2023-07-24T15:00:57;21.60;99.90
30097;DHT22;16915;51.466;3.610;2023-07-24T15:03:23;21.20;99.90
30097;DHT22;16915;51.466;3.610;2023-07-24T15:05:49;21.00;99.90
30097;DHT22;16915;51.466;3.610;2023-07-24T15:08:14;21.10;99.90
30097;DHT22;16915;51.466;3.610;2023-07-24T15:10:40;21.40;99.90
30097;DHT22;16915;51.466;3.610;2023-07-24T15:13:06;21.90;99.90
30097;DHT22;16915;51.466;3.610;2023-07-24T15:15:32;21.90;99.90
30097;DHT22;16915;51.466;3.610;2023-07-24T15:17:59;21.80;99.90
30097;DHT22;16915;51.466;3.610;2023-07-24T15:20:24;21.70;99.90
30097;DHT22;16915;51.466;3.610;2023-07-24T15:22:50;21.70;99.90
30097;DHT22;16915;51.466;3.610;2023-07-24T15:25:19;21.70;99.90
30097;DHT22;16915;51.466;3.610;2023-07-24T15:27:45;22.20;99.90
30097;DHT22;16915;51.466;3.610;2023-07-24T15:30:10;22.70;99.90
30097;DHT22;16915;51.466;3.610;2023-07-24T15:32:36;23.40;99.90
30097;DHT22;16915;51.466;3.610;2023-07-24T15:35:02;24.10;99.90
30097;DHT22;16915;51.466;3.610;2023-07-24T15:37:27;24.20;99.90